Time;durP1;ratioP1;P1;durP2;ratioP2;P2;SDS_P1;SDS_P2;PMS_P1;PMS_P2;Temp;Humidity;BMP_temperature;BMP_pressure;BME280_temperature;BME280_humidity;BME280_pressure;Samples;Min_cycle;Max_cycle;Signal;HPM_P1;HPM_P2
2022/04/08 00:02:22;;;;;;;6.33;1.47;;;;;;;9.36;57.41;96627.22;5076577;28;20205;-67
2022/04/08 00:04:49;;;;;;;3.03;1.20;;;;;;;9.32;57.58;96634.88;5076364;28;20226;-68
2022/04/08 00:07:15;;;;;;;2.17;1.30;;;;;;;9.35;57.25;96646.84;5076326;28;20225;-67
2022/04/08 00:09:42;;;;;;;3.17;1.30;;;;;;;9.32;58.18;96634.88;5076057;28;20212;-67
2022/04/08 00:12:09;;;;;;;4.83;1.47;;;;;;;9.27;58.56;96634.81;5076063;28;20208;-68
2022/04/08 00:14:36;;;;;;;4.93;1.23;;;;;;;9.27;58.75;96645.44;5076531;28;20204;-68
2022/04/08 00:17:04;;;;;;;4.73;1.20;;;;;;;9.28;58.50;96649.69;5075933;28;20225;-68
2022/04/08 00:19:31;;;;;;;5.63;1.43;;;;;;;9.27;57.82;96642.78;5075875;28;20224;-67
2022/04/08 00:21:57;;;;;;;5.70;1.60;;;;;;;9.29;57.06;96653.97;5075991;28;20211;-68
2022/04/08 00:24:23;;;;;;;6.30;1.77;;;;;;;9.27;58.06;96645.44;5075957;28;20208;-68
2022/04/08 00:26:50;;;;;;;4.47;1.20;;;;;;;9.25;57.16;96636.94;5075819;28;20228;-68
2022/04/08 00:29:16;;;;;;;4.80;1.33;;;;;;;9.30;56.86;96646.78;5075870;28;20655;-68
2022/04/08 00:31:43;;;;;;;4.00;1.30;;;;;;;9.30;56.34;96631.69;5076088;28;20205;-68
2022/04/08 00:34:09;;;;;;;5.23;1.30;;;;;;;9.31;54.86;96630.63;5076060;28;20205;-68
2022/04/08 00:36:35;;;;;;;5.50;1.60;;;;;;;9.27;55.45;96647.28;5075917;28;20232;-68
2022/04/08 00:39:02;;;;;;;2.13;1.00;;;;;;;9.31;54.72;96651.03;5075833;28;20206;-68
2022/04/08 00:41:28;;;;;;;3.13;1.00;;;;;;;9.28;54.75;96656.84;5075366;28;20201;-69
2022/04/08 00:43:54;;;;;;;5.03;1.17;;;;;;;9.32;54.68;96650.00;5075893;28;20207;-68
2022/04/08 00:46:21;;;;;;;3.60;1.53;;;;;;;9.30;55.76;96660.06;5075480;28;20209;-68
2022/04/08 00:48:47;;;;;;;7.13;1.30;;;;;;;9.28;55.06;96644.38;5075487;28;20569;-68
2022/04/08 00:51:15;;;;;;;2.30;1.20;;;;;;;9.21;55.78;96657.03;5075271;28;20563;-68
2022/04/08 00:53:44;;;;;;;2.07;1.10;;;;;;;9.26;56.30;96650.97;5076257;28;20201;-68
2022/04/08 00:56:11;;;;;;;7.33;1.87;;;;;;;9.23;56.60;96673.47;5075650;28;20215;-68
2022/04/08 00:58:37;;;;;;;11.60;2.30;;;;;;;9.26;56.55;96674.84;5074016;28;20561;-67
2022/04/08 01:01:04;;;;;;;5.00;1.40;;;;;;;9.24;56.83;96683.03;5075459;28;20224;-68
2022/04/08 01:03:30;;;;;;;5.43;1.13;;;;;;;9.24;57.34;96672.41;5075471;28;20208;-69
2022/04/08 01:05:58;;;;;;;2.63;1.23;;;;;;;9.19;58.11;96672.34;5075442;28;20212;-68
2022/04/08 01:08:24;;;;;;;4.90;1.50;;;;;;;9.21;57.67;96690.69;5075335;28;20232;-68
2022/04/08 01:10:50;;;;;;;4.10;1.20;;;;;;;9.18;57.19;96683.19;5075875;28;20667;-68
2022/04/08 01:13:17;;;;;;;2.87;1.13;;;;;;;9.17;57.89;96689.56;5075252;28;20223;-68
2022/04/08 01:15:43;;;;;;;5.63;1.50;;;;;;;9.12;58.17;96692.13;5075478;28;20209;-68
2022/04/08 01:18:10;;;;;;;5.87;1.60;;;;;;;9.15;57.29;96696.97;5075175;28;20231;-68
2022/04/08 01:20:36;;;;;;;5.03;1.20;;;;;;;9.17;56.94;96689.56;5075136;28;20225;-68
2022/04/08 01:23:03;;;;;;;3.33;1.20;;;;;;;9.12;57.17;96690.28;5075157;28;20573;-67
2022/04/08 01:25:29;;;;;;;6.40;1.40;;;;;;;9.11;56.88;96696.66;5075075;28;20215;-67
2022/04/08 01:27:56;;;;;;;3.83;1.40;;;;;;;9.13;56.66;96707.81;5075809;28;20363;-68
2022/04/08 01:30:22;;;;;;;3.73;1.20;;;;;;;9.05;56.78;96697.59;5074970;28;20227;-67
2022/04/08 01:32:49;;;;;;;5.20;1.57;;;;;;;9.02;57.36;96711.34;5074971;28;20570;-67
2022/04/08 01:35:15;;;;;;;4.63;1.30;;;;;;;8.99;56.95;96706.53;5074517;28;20209;-67
2022/04/08 01:37:42;;;;;;;4.93;1.43;;;;;;;9.01;56.74;96703.63;5074959;28;20575;-68
2022/04/08 01:40:09;;;;;;;5.23;1.40;;;;;;;8.99;56.15;96717.13;5074415;28;20223;-68
2022/04/08 01:42:35;;;;;;;6.83;1.20;;;;;;;8.92;57.56;96715.69;5074409;28;20205;-68
2022/04/08 01:45:02;;;;;;;5.07;1.60;;;;;;;8.93;56.74;96710.16;5074698;28;20569;-68
2022/04/08 01:47:28;;;;;;;7.73;1.77;;;;;;;8.90;57.11;96717.75;5074248;28;20547;-68
2022/04/08 01:49:54;;;;;;;5.47;1.30;;;;;;;8.89;57.97;96726.75;5074596;28;20283;-68
2022/04/08 01:52:21;;;;;;;4.53;1.47;;;;;;;8.82;57.94;96723.47;5073818;28;20212;-68
2022/04/08 01:54:47;;;;;;;5.50;1.70;;;;;;;8.77;58.20;96718.06;5073888;28;20230;-68
2022/04/08 01:57:14;;;;;;;4.27;1.57;;;;;;;8.74;58.83;96719.34;5074074;28;20236;-67
2022/04/08 01:59:40;;;;;;;4.90;1.47;;;;;;;8.73;58.87;96724.91;5074015;28;20224;-68
2022/04/08 02:02:06;;;;;;;4.53;1.17;;;;;;;8.71;59.73;96730.44;5074269;28;20212;-68
2022/04/08 02:04:35;;;;;;;3.50;1.00;;;;;;;8.68;59.63;96741.50;5073918;28;20219;-67
2022/04/08 02:07:02;;;;;;;4.10;1.27;;;;;;;8.64;60.29;96734.28;5073882;28;20229;-68
2022/04/08 02:09:29;;;;;;;5.63;1.30;;;;;;;8.66;60.61;96729.53;5074168;28;20243;-68
2022/04/08 02:11:56;;;;;;;4.73;1.37;;;;;;;8.60;60.64;96736.59;5073868;28;20621;-68
2022/04/08 02:14:32;;;;;;;3.70;1.23;;;;;;;8.63;60.59;96737.97;5074131;28;20254;-68
2022/04/08 02:16:59;;;;;;;7.57;1.83;;;;;;;8.67;60.22;96734.59;5073823;28;20227;-68
2022/04/08 02:19:25;;;;;;;4.25;1.50;;;;;;;8.61;60.38;96730.28;5073707;28;20686;-68
2022/04/08 02:21:52;;;;;;;5.50;1.40;;;;;;;8.68;59.02;96725.59;5074523;28;20209;-68
2022/04/08 02:24:18;;;;;;;5.03;1.40;;;;;;;8.68;59.87;96722.16;5074530;28;20215;-68
2022/04/08 02:26:45;;;;;;;3.17;1.30;;;;;;;8.67;59.57;96729.31;5073532;28;20707;-68
2022/04/08 02:29:11;;;;;;;3.27;1.10;;;;;;;8.66;59.43;96734.84;5073891;28;20213;-68
2022/04/08 02:31:38;;;;;;;4.17;1.40;;;;;;;8.63;59.42;96741.41;5073825;28;20204;-68
2022/04/08 02:34:04;;;;;;;7.33;1.80;;;;;;;8.62;59.18;96741.66;5073810;28;20200;-68
2022/04/08 02:36:30;;;;;;;2.30;1.10;;;;;;;8.54;59.57;96729.59;5073726;28;20217;-67
2022/04/08 02:38:57;;;;;;;3.13;1.50;;;;;;;8.57;59.24;96739.72;5073783;28;20213;-68
2022/04/08 02:41:23;;;;;;;4.70;1.33;;;;;;;8.52;60.60;96744.94;5073697;28;20224;-68
2022/04/08 02:43:49;;;;;;;5.23;1.30;;;;;;;8.59;59.70;96750.88;5073754;28;20208;-68
2022/04/08 02:46:16;;;;;;;7.40;1.57;;;;;;;8.53;59.49;96754.50;5073608;28;20204;-67
2022/04/08 02:48:42;;;;;;;6.17;1.13;;;;;;;8.52;59.23;96746.78;5073320;28;20211;-68
2022/04/08 02:51:09;;;;;;;3.27;1.03;;;;;;;8.49;59.00;96757.84;5073523;28;20579;-68
2022/04/08 02:53:35;;;;;;;3.60;1.27;;;;;;;8.46;59.71;96764.41;5073611;28;20189;-68
2022/04/08 02:56:01;;;;;;;4.93;1.13;;;;;;;8.44;59.76;96774.44;5073592;28;20216;-68
2022/04/08 02:58:28;;;;;;;4.67;1.50;;;;;;;8.42;58.71;96775.72;5073165;28;20236;-68
2022/04/08 03:00:57;;;;;;;5.03;1.10;;;;;;;8.38;58.66;96771.94;5073425;28;20231;-67
2022/04/08 03:03:26;;;;;;;4.50;1.00;;;;;;;8.40;59.33;96780.44;5073481;28;20277;-68
2022/04/08 03:05:52;;;;;;;7.77;1.73;;;;;;;8.36;59.67;96772.16;5073215;28;20204;-67
2022/04/08 03:08:18;;;;;;;4.93;1.50;;;;;;;8.38;60.15;96783.31;5073344;28;20224;-67
2022/04/08 03:10:45;;;;;;;5.40;1.50;;;;;;;8.29;59.56;96776.00;5073116;28;20201;-68
2022/04/08 03:13:12;;;;;;;5.63;1.30;;;;;;;8.25;61.63;96775.66;5073291;28;20208;-68
2022/04/08 03:15:38;;;;;;;6.53;1.47;;;;;;;8.21;61.72;96766.59;5073341;28;20250;-67
2022/04/08 03:18:05;;;;;;;6.60;1.53;;;;;;;8.17;61.09;96770.72;5072871;28;20231;-68
2022/04/08 03:20:32;;;;;;;3.43;1.23;;;;;;;8.13;62.10;96779.34;5073201;28;20588;-68
2022/04/08 03:22:58;;;;;;;4.67;1.33;;;;;;;8.12;61.66;96785.66;5073144;28;20204;-68
2022/04/08 03:25:25;;;;;;;4.17;1.10;;;;;;;8.16;62.54;96785.00;5073272;28;20201;-68
2022/04/08 03:27:51;;;;;;;7.23;1.63;;;;;;;8.16;62.29;96792.94;5073125;28;20224;-68
2022/04/08 03:30:18;;;;;;;4.87;1.30;;;;;;;8.22;62.02;96780.59;5073157;28;20205;-68
2022/04/08 03:32:44;;;;;;;3.63;1.10;;;;;;;8.21;62.10;96789.59;5072713;28;20205;-68
2022/04/08 03:35:10;;;;;;;5.13;1.00;;;;;;;8.18;61.87;96777.59;5072602;28;20691;-68
2022/04/08 03:37:37;;;;;;;6.77;1.40;;;;;;;8.20;61.87;96780.03;5073027;28;20274;-68
2022/04/08 03:40:04;;;;;;;6.90;1.43;;;;;;;8.16;61.64;96795.56;5072939;28;20235;-68
2022/04/08 03:42:30;;;;;;;5.27;1.40;;;;;;;8.20;60.27;96787.97;5073026;28;20208;-68
2022/04/08 03:44:56;;;;;;;4.80;1.20;;;;;;;8.19;60.73;96794.31;5072970;28;20215;-68
2022/04/08 03:47:23;;;;;;;4.03;1.17;;;;;;;8.13;61.13;96788.09;5072856;28;20225;-68
2022/04/08 03:49:49;;;;;;;4.40;1.20;;;;;;;8.22;59.42;96796.50;5072986;28;20230;-68
2022/04/08 03:52:16;;;;;;;4.87;1.40;;;;;;;8.20;59.29;96787.97;5072455;28;20705;-68
2022/04/08 03:54:42;;;;;;;2.57;1.30;;;;;;;8.18;59.43;96782.91;5072792;28;20205;-68
2022/04/08 03:57:09;;;;;;;4.93;1.10;;;;;;;8.16;58.98;96773.59;5072983;28;20217;-67
2022/04/08 03:59:35;;;;;;;4.67;1.60;;;;;;;8.16;58.15;96778.88;5072499;28;20204;-68
2022/04/08 04:02:02;;;;;;;3.23;1.47;;;;;;;8.15;57.56;96788.66;5072507;28;20227;-67
2022/04/08 04:04:28;;;;;;;5.37;1.60;;;;;;;8.09;58.20;96797.53;5072472;28;20266;-69
2022/04/08 04:06:54;;;;;;;4.43;1.30;;;;;;;8.10;57.33;96801.00;5072738;28;20225;-67
2022/04/08 04:09:21;;;;;;;6.53;1.60;;;;;;;8.12;56.48;96820.91;5072766;28;20204;-68
2022/04/08 04:11:47;;;;;;;5.00;1.10;;;;;;;8.15;56.27;96804.53;5072808;28;20223;-68
2022/04/08 04:14:14;;;;;;;4.80;1.37;;;;;;;8.08;57.12;96814.47;5072678;28;20219;-68
2022/04/08 04:16:40;;;;;;;5.57;1.30;;;;;;;8.12;56.57;96801.56;5073697;28;20224;-68
2022/04/08 04:19:07;;;;;;;4.63;1.23;;;;;;;8.09;56.85;96792.25;5076024;28;20211;-68
2022/04/08 04:21:33;;;;;;;7.57;1.27;;;;;;;8.04;57.19;96804.56;5075780;28;20221;-68
2022/04/08 04:24:00;;;;;;;6.67;1.50;;;;;;;8.01;57.01;96805.81;5075923;28;20205;-68
2022/04/08 04:26:26;;;;;;;6.67;1.60;;;;;;;7.94;57.69;96809.63;5075681;28;20318;-68
2022/04/08 04:28:52;;;;;;;5.27;1.40;;;;;;;7.98;57.03;96800.19;5075886;28;20653;-68
2022/04/08 04:31:19;;;;;;;7.60;1.50;;;;;;;7.94;58.56;96813.09;5075972;28;20201;-68
2022/04/08 04:33:45;;;;;;;5.13;1.70;;;;;;;7.94;58.11;96807.81;5075806;28;20204;-68
2022/04/08 04:36:12;;;;;;;6.70;1.60;;;;;;;7.92;57.94;96798.50;5075641;28;20209;-68
2022/04/08 04:38:38;;;;;;;5.97;1.30;;;;;;;7.95;57.97;96811.25;5075496;28;20225;-68
2022/04/08 04:41:04;;;;;;;5.37;1.60;;;;;;;7.92;58.27;96795.84;5075037;28;20257;-68
2022/04/08 04:43:31;;;;;;;5.70;1.40;;;;;;;7.87;58.82;96796.53;5074726;28;20675;-68
2022/04/08 04:45:57;;;;;;;7.07;1.40;;;;;;;7.87;59.10;96801.03;5075271;28;20232;-68
2022/04/08 04:48:24;;;;;;;3.90;1.20;;;;;;;7.86;60.11;96805.50;5075440;28;20221;-68
2022/04/08 04:50:50;;;;;;;7.93;1.70;;;;;;;7.82;59.74;96812.31;5075337;28;20201;-68
2022/04/08 04:53:17;;;;;;;4.43;1.60;;;;;;;7.88;61.01;96813.22;5074948;28;20266;-68
2022/04/08 04:55:43;;;;;;;5.33;1.40;;;;;;;7.80;60.37;96814.38;5075462;28;20204;-68
2022/04/08 04:58:09;;;;;;;6.53;1.70;;;;;;;7.78;60.76;96813.00;5075048;28;20235;-68
2022/04/08 05:00:36;;;;;;;5.60;1.33;;;;;;;7.82;60.81;96820.22;5074856;28;20717;-68
2022/04/08 05:03:03;;;;;;;4.70;1.47;;;;;;;7.78;63.94;96823.59;5074837;28;20208;-68
2022/04/08 05:05:29;;;;;;;6.70;1.70;;;;;;;7.75;61.42;96819.56;5074709;28;20205;-68
2022/04/08 05:07:56;;;;;;;2.93;1.17;;;;;;;7.81;61.05;96816.00;5074179;28;20569;-68
2022/04/08 05:10:22;;;;;;;5.57;1.50;;;;;;;7.83;60.76;96821.84;5074246;28;20701;-68
2022/04/08 05:12:49;;;;;;;6.60;1.30;;;;;;;7.88;61.44;96821.16;5074222;28;20205;-68
2022/04/08 05:15:15;;;;;;;8.30;1.70;;;;;;;7.84;62.81;96809.44;5074172;28;20200;-68
2022/04/08 05:17:43;;;;;;;4.23;1.33;;;;;;;7.89;60.71;96820.13;5074339;28;20394;-68
2022/04/08 05:20:10;;;;;;;5.27;1.47;;;;;;;7.80;62.23;96818.84;5074283;28;20254;-68
2022/04/08 05:22:38;;;;;;;5.93;1.70;;;;;;;7.77;63.92;96828.06;5073508;28;20686;-68
2022/04/08 05:25:05;;;;;;;5.13;1.53;;;;;;;7.80;65.21;96824.16;5073614;28;20683;-67
2022/04/08 05:27:39;;;;;;;5.83;1.90;;;;;;;7.86;64.41;96821.38;5073984;28;20591;-67
2022/04/08 05:30:07;;;;;;;4.73;1.60;;;;;;;7.88;65.24;96834.38;5073459;28;20568;-68
2022/04/08 05:32:33;;;;;;;7.20;1.60;;;;;;;7.93;61.62;96834.50;5073973;28;20205;-69
2022/04/08 05:35:00;;;;;;;6.40;1.70;;;;;;;7.95;61.10;96835.06;5074373;28;20216;-69
2022/04/08 05:37:28;;;;;;;3.63;1.20;;;;;;;8.03;60.30;96838.19;5073855;28;20232;-68
2022/04/08 05:39:55;;;;;;;4.07;1.33;;;;;;;8.06;59.91;96837.69;5074113;28;20205;-68
2022/04/08 05:42:22;;;;;;;7.20;1.60;;;;;;;8.08;61.10;96840.94;5073679;28;20755;-68
2022/04/08 05:44:48;;;;;;;4.07;1.20;;;;;;;8.16;60.91;96839.75;5073690;28;20569;-69
2022/04/08 05:47:14;;;;;;;6.50;1.50;;;;;;;8.09;61.89;96845.19;5073329;28;20319;-68
2022/04/08 05:49:42;;;;;;;3.13;1.30;;;;;;;8.17;60.83;96841.34;5073425;28;20204;-69
2022/04/08 05:52:08;;;;;;;4.43;1.27;;;;;;;8.19;60.63;96844.59;5073594;28;20217;-69
2022/04/08 05:54:34;;;;;;;8.57;1.63;;;;;;;8.18;62.68;96854.38;5073351;28;20211;-69
2022/04/08 05:57:01;;;;;;;5.13;1.77;;;;;;;8.14;62.43;96852.44;5073774;28;20229;-69
2022/04/08 05:59:29;;;;;;;4.90;1.57;;;;;;;8.04;66.11;96846.91;5073704;28;20212;-69
2022/04/08 06:01:55;;;;;;;6.00;1.60;;;;;;;8.05;67.14;96841.38;5073361;28;20310;-69
2022/04/08 06:04:21;;;;;;;7.60;1.40;;;;;;;8.01;65.78;96842.09;5073242;28;20209;-69
2022/04/08 06:06:48;;;;;;;3.77;1.23;;;;;;;7.97;70.14;96840.94;5073092;28;20281;-68
2022/04/08 06:09:15;;;;;;;2.80;1.20;;;;;;;7.99;67.00;96833.56;5073336;28;20208;-69
2022/04/08 06:11:42;;;;;;;5.83;1.47;;;;;;;7.99;68.35;96836.22;5073483;28;20207;-69
2022/04/08 06:14:09;;;;;;;8.00;1.63;;;;;;;7.98;70.77;96826.66;5073322;28;20254;-69
2022/04/08 06:16:35;;;;;;;3.67;1.17;;;;;;;7.87;67.32;96827.50;5073535;28;20228;-68
2022/04/08 06:19:01;;;;;;;3.90;0.93;;;;;;;7.75;70.36;96826.69;5074629;28;20205;-69
2022/04/08 06:21:28;;;;;;;5.37;1.20;;;;;;;7.69;69.15;96822.31;5073407;28;20225;-69
2022/04/08 06:23:54;;;;;;;4.47;1.50;;;;;;;7.76;70.26;96823.81;5073244;28;20211;-69
2022/04/08 06:26:20;;;;;;;5.13;1.13;;;;;;;7.72;68.71;96809.44;5072475;28;20201;-67
2022/04/08 06:28:47;;;;;;;4.93;1.17;;;;;;;7.71;69.47;96812.31;5073153;28;20216;-71
2022/04/08 06:31:37;;;;;;;4.13;1.10;;;;;;;7.75;70.98;96810.81;5072842;28;20205;-67
2022/04/08 06:34:04;;;;;;;6.63;1.30;;;;;;;7.81;69.75;96797.47;5073313;28;20215;-68
2022/04/08 06:36:40;;;;;;;3.50;1.03;;;;;;;7.80;68.97;96806.44;5072900;28;20204;-68
2022/04/08 06:39:07;;;;;;;3.40;1.17;;;;;;;7.80;71.23;96800.34;5073081;28;20701;-68
2022/04/08 06:48:22;;;;;;;6.80;1.70;;;;;;;7.78;70.81;96799.78;4980439;28;20266;-68
2022/04/08 06:50:58;;;;;;;2.90;0.93;;;;;;;7.80;70.70;96801.16;5031082;28;20197;-69
2022/04/08 06:56:41;;;;;;;5.27;1.47;;;;;;;7.87;72.41;96807.13;5055879;28;20310;-69
2022/04/08 06:59:07;;;;;;;5.83;1.20;;;;;;;7.71;71.84;96799.91;5050685;28;20570;-68
2022/04/08 07:08:01;;;;;;;5.70;0.93;;;;;;;7.55;75.76;96791.88;5066324;28;20228;-69
2022/04/08 07:23:06;;;;;;;4.10;1.00;;;;;;;7.07;81.36;96789.41;5008699;28;20282;-67
2022/04/08 07:26:18;;;;;;;2.67;1.00;;;;;;;7.05;83.41;96780.06;4933706;29;20678;-67
2022/04/08 07:31:46;;;;;;;3.23;1.27;;;;;;;7.03;87.55;96766.28;4858451;29;20219;-67
2022/04/08 07:34:28;;;;;;;2.80;0.90;;;;;;;6.95;88.46;96770.06;4904151;29;20256;-67
2022/04/08 07:37:33;;;;;;;6.13;1.40;;;;;;;6.94;91.35;96767.66;4913778;29;20247;-66
2022/04/08 07:40:26;;;;;;;2.13;1.10;;;;;;;6.99;92.41;96759.84;4877104;29;20299;-67
2022/04/08 07:42:57;;;;;;;2.03;1.00;;;;;;;7.03;90.64;96763.66;4953122;28;20297;-66
2022/04/08 07:51:06;;;;;;;2.60;0.70;;;;;;;6.97;87.66;96749.50;4930522;28;20234;-66
2022/04/08 07:53:33;;;;;;;3.50;1.00;;;;;;;6.96;89.03;96753.19;4997066;28;20230;-67
2022/04/08 07:56:03;;;;;;;3.57;0.87;;;;;;;7.13;92.35;96748.84;4997028;28;20216;-67
2022/04/08 07:58:29;;;;;;;2.20;0.87;;;;;;;7.04;90.82;96746.75;4996977;28;20591;-67
2022/04/08 08:00:55;;;;;;;2.40;0.90;;;;;;;7.09;95.68;96741.59;4997034;28;20303;-66
2022/04/08 08:03:22;;;;;;;2.87;0.87;;;;;;;7.02;88.53;96746.19;4996874;28;20242;-67
2022/04/08 08:05:51;;;;;;;6.00;1.30;;;;;;;7.13;90.46;96737.47;4996474;28;20207;-68
2022/04/08 08:08:18;;;;;;;2.57;1.00;;;;;;;7.27;90.31;96726.44;4996864;28;20314;-67
2022/04/08 08:10:44;;;;;;;1.33;0.93;;;;;;;7.55;91.42;96723.91;4996579;28;20682;-68
2022/04/08 08:13:11;;;;;;;2.63;1.00;;;;;;;7.65;89.66;96715.38;4996836;28;20210;-68
2022/04/08 08:15:37;;;;;;;2.97;0.90;;;;;;;7.66;89.30;96709.06;4996884;28;20207;-68
2022/04/08 08:18:05;;;;;;;1.80;0.70;;;;;;;7.77;90.37;96708.22;4996796;28;20223;-68
2022/04/08 08:20:31;;;;;;;3.43;1.10;;;;;;;7.58;95.10;96704.94;4996760;28;20203;-68
2022/04/08 08:23:00;;;;;;;4.93;0.80;;;;;;;7.79;92.66;96701.66;4996372;28;20694;-68
2022/04/08 08:25:27;;;;;;;4.63;1.30;;;;;;;7.72;91.39;96705.47;4996399;28;20568;-67
2022/04/08 08:27:58;;;;;;;2.23;1.00;;;;;;;7.71;91.33;96690.63;4996078;28;20706;-68
2022/04/08 08:30:37;;;;;;;2.53;1.07;;;;;;;7.66;92.86;96685.25;4996912;28;20191;-68
2022/04/08 08:33:10;;;;;;;6.33;1.30;;;;;;;7.60;93.80;96688.84;4996199;28;20286;-68
2022/04/08 08:38:52;;;;;;;2.17;0.80;;;;;;;7.76;92.07;96683.63;5011975;23;20297;-68
2022/04/08 08:44:19;;;;;;;2.27;0.90;;;;;;;7.85;92.02;96681.38;4994392;28;20346;-68
2022/04/08 08:46:59;;;;;;;2.47;0.90;;;;;;;7.84;93.94;96671.84;5021584;22;20227;-68
2022/04/08 08:49:31;;;;;;;2.47;0.73;;;;;;;7.57;92.53;96670.78;4977895;28;20224;-68
2022/04/08 08:55:26;;;;;;;1.53;0.70;;;;;;;7.79;93.72;96656.69;4896710;29;20221;-68
2022/04/08 08:58:01;;;;;;;1.60;0.93;;;;;;;7.81;94.17;96651.97;4897827;29;20256;-68
2022/04/08 09:15:40;;;;;;;2.97;0.90;;;;;;;7.85;95.91;96634.59;4886617;29;20206;-68
2022/04/08 09:18:41;;;;;;;1.97;0.70;;;;;;;8.02;94.42;96618.75;4935583;29;20252;-68
2022/04/08 09:21:27;;;;;;;1.47;0.77;;;;;;;8.08;96.00;96609.84;4934506;29;20251;-68
2022/04/08 09:29:57;;;;;;;2.17;0.60;;;;;;;7.83;95.07;96589.03;4932910;29;20209;-68
2022/04/08 09:32:50;;;;;;;2.77;0.90;;;;;;;7.80;96.52;96581.59;4935113;29;20211;-69
2022/04/08 09:38:32;;;;;;;2.37;0.80;;;;;;;7.92;95.85;96560.38;4951732;28;20243;-68
2022/04/08 09:41:12;;;;;;;1.37;0.83;;;;;;;7.79;96.03;96555.38;4952788;29;20271;-68
2022/04/08 09:43:39;;;;;;;2.00;0.77;;;;;;;7.86;94.21;96548.06;4954273;29;20610;-68
2022/04/08 09:46:19;;;;;;;0.80;0.70;;;;;;;7.71;92.75;96543.34;4954142;29;20225;-68
2022/04/08 09:48:47;;;;;;;3.27;0.90;;;;;;;7.47;96.49;96547.09;4993276;28;20238;-69
2022/04/08 09:51:21;;;;;;;1.10;0.70;;;;;;;7.50;96.35;96545.81;4995021;28;20213;-68
2022/04/08 09:54:09;;;;;;;2.13;0.60;;;;;;;7.42;95.86;96541.72;4995071;28;20199;-68
2022/04/08 09:56:37;;;;;;;1.33;0.60;;;;;;;7.28;97.07;96532.44;4995042;28;20251;-68
2022/04/08 09:59:11;;;;;;;2.00;0.80;;;;;;;7.39;97.63;96523.69;4994783;28;20242;-67
2022/04/08 10:01:38;;;;;;;1.13;0.70;;;;;;;7.45;100.00;96506.88;4994898;28;20561;-70
2022/04/08 10:04:09;;;;;;;1.47;0.50;;;;;;;7.34;91.59;96506.94;4994921;28;20207;-69
2022/04/08 10:06:36;;;;;;;1.47;0.50;;;;;;;7.35;91.77;96500.59;4994809;28;20231;-70
2022/04/08 10:09:04;;;;;;;0.87;0.50;;;;;;;7.21;94.25;96484.22;4994292;28;20666;-68
2022/04/08 10:12:15;;;;;;;1.50;0.57;;;;;;;7.17;90.10;96487.56;4995020;28;20313;-69
2022/04/08 10:14:58;;;;;;;0.93;0.70;;;;;;;7.25;91.37;96471.34;4933686;29;20303;-72
2022/04/08 10:17:25;;;;;;;4.63;0.60;;;;;;;7.19;97.49;96467.78;4986819;28;20231;-69
2022/04/08 10:19:52;;;;;;;2.60;0.83;;;;;;;7.22;99.72;96459.41;4994581;28;20211;-69
2022/04/08 10:22:20;;;;;;;1.73;0.70;;;;;;;7.33;95.90;96447.19;4994302;28;20228;-69
2022/04/08 10:24:56;;;;;;;0.57;0.50;;;;;;;7.29;95.71;96446.84;4994047;28;20670;-69
2022/04/08 10:27:38;;;;;;;1.07;0.40;;;;;;;7.41;92.05;96441.50;4994428;28;20227;-69
2022/04/08 10:30:15;;;;;;;1.23;0.50;;;;;;;7.31;93.72;96436.03;4994312;28;20612;-69
2022/04/08 10:32:43;;;;;;;0.40;0.40;;;;;;;7.47;87.46;96433.41;4994176;28;20191;-69
2022/04/08 10:35:17;;;;;;;0.63;0.63;;;;;;;7.32;92.81;96429.69;4994028;28;20548;-69
2022/04/08 10:38:02;;;;;;;0.80;0.50;;;;;;;7.27;88.16;96424.31;4994306;28;20230;-69
2022/04/08 10:40:36;;;;;;;2.07;0.53;;;;;;;7.49;93.09;96417.31;4993843;28;20657;-69
2022/04/08 10:43:12;;;;;;;0.73;0.53;;;;;;;7.36;95.77;96407.84;4993886;28;20233;-69
2022/04/08 10:45:38;;;;;;;1.23;0.67;;;;;;;7.48;95.97;96395.38;4994027;28;20191;-69
2022/04/08 10:48:11;;;;;;;0.53;0.50;;;;;;;7.64;90.58;96394.56;4994089;28;20231;-68
2022/04/08 10:50:39;;;;;;;1.30;0.80;;;;;;;7.79;91.11;96386.84;4994009;28;20211;-68
2022/04/08 10:53:21;;;;;;;0.50;0.50;;;;;;;7.64;86.34;96388.50;4993807;28;20691;-70
2022/04/08 10:55:56;;;;;;;0.63;0.50;;;;;;;7.40;87.84;96384.38;4994202;28;20270;-70
2022/04/08 10:58:49;;;;;;;1.83;0.60;;;;;;;7.58;89.00;96370.94;4993943;28;20223;-69
2022/04/08 11:01:24;;;;;;;0.60;0.60;;;;;;;7.24;90.36;96361.41;4993812;28;20712;-70
2022/04/08 11:04:02;;;;;;;0.63;0.63;;;;;;;7.06;88.15;96359.75;4993986;28;20221;-69
2022/04/08 11:06:30;;;;;;;1.47;0.50;;;;;;;7.51;90.65;96349.16;4993799;28;20187;-69
2022/04/08 11:08:57;;;;;;;0.80;0.70;;;;;;;7.39;91.33;96335.19;4993278;28;20226;-70
2022/04/08 11:11:31;;;;;;;1.53;1.17;;;;;;;7.09;94.48;96348.72;4993638;28;20209;-69
2022/04/08 11:13:58;;;;;;;0.93;0.70;;;;;;;6.91;94.95;96356.03;4993386;28;20581;-69
2022/04/08 11:16:29;;;;;;;0.53;0.50;;;;;;;7.08;95.82;96315.41;4993747;28;20215;-69
2022/04/08 11:18:56;;;;;;;0.60;0.60;;;;;;;7.23;93.72;96298.97;4993520;28;20196;-69
2022/04/08 11:21:23;;;;;;;0.60;0.60;;;;;;;6.95;95.82;96342.13;4993764;28;20204;-69
2022/04/08 11:23:59;;;;;;;3.80;0.83;;;;;;;6.96;100.00;96306.75;4993667;28;20338;-69
2022/04/08 11:26:27;;;;;;;0.60;0.60;;;;;;;7.06;96.99;96317.47;4995954;28;20231;-69
2022/04/08 11:28:54;;;;;;;1.80;0.77;;;;;;;7.10;95.67;96313.31;4997621;28;20261;-69
2022/04/08 11:31:21;;;;;;;1.13;0.80;;;;;;;7.16;93.94;96285.16;4997877;28;20207;-69
2022/04/08 11:33:47;;;;;;;0.67;0.67;;;;;;;6.75;95.39;96293.44;4997212;28;20647;-67
2022/04/08 11:36:15;;;;;;;2.37;0.70;;;;;;;6.64;100.00;96292.44;4997288;28;20678;-68
2022/04/08 11:38:43;;;;;;;2.10;1.00;;;;;;;6.92;98.55;96270.50;4997401;28;20211;-68
2022/04/08 11:41:20;;;;;;;1.60;0.80;;;;;;;6.93;97.67;96253.59;4997315;28;20290;-68
2022/04/08 11:43:46;;;;;;;1.57;1.13;;;;;;;6.96;99.33;96255.75;4997320;28;20329;-68
2022/04/08 11:46:15;;;;;;;2.77;1.20;;;;;;;7.03;97.61;96248.47;4997260;28;20207;-68
2022/04/08 11:48:41;;;;;;;3.03;1.50;;;;;;;7.12;100.00;96244.38;4997116;28;20211;-68
2022/04/08 11:51:08;;;;;;;2.93;1.10;;;;;;;7.18;100.00;96240.78;4997320;28;20219;-67
2022/04/08 11:53:48;;;;;;;1.87;1.00;;;;;;;7.24;100.00;96258.31;4997350;28;20203;-67
2022/04/08 11:56:25;;;;;;;2.80;1.10;;;;;;;7.11;100.00;96240.94;4996975;28;20195;-67
2022/04/08 11:59:00;;;;;;;2.17;1.30;;;;;;;7.25;100.00;96215.00;4996837;28;20194;-68
2022/04/08 12:01:34;;;;;;;1.87;1.23;;;;;;;7.31;100.00;96208.72;4996520;28;20666;-67
2022/04/08 12:04:14;;;;;;;1.27;1.17;;;;;;;7.13;100.00;96217.72;4996830;28;20234;-67
2022/04/08 12:06:49;;;;;;;1.27;0.80;;;;;;;7.01;100.00;96234.72;4996717;28;20728;-67
2022/04/08 12:09:17;;;;;;;1.13;1.07;;;;;;;6.81;100.00;96229.09;4997124;28;20195;-67
2022/04/08 12:11:46;;;;;;;2.43;1.07;;;;;;;6.82;100.00;96230.69;4997277;28;20601;-67
2022/04/08 12:14:14;;;;;;;2.50;1.00;;;;;;;6.65;100.00;96224.59;4996780;28;20211;-67
2022/04/08 12:16:41;;;;;;;1.70;1.03;;;;;;;6.65;100.00;96214.06;4996336;28;20286;-67
2022/04/08 12:19:09;;;;;;;1.33;1.23;;;;;;;6.63;100.00;96203.72;4996794;28;20243;-67
2022/04/08 12:21:39;;;;;;;0.90;0.90;;;;;;;6.40;100.00;96205.69;4996403;28;20214;-67
2022/04/08 12:24:07;;;;;;;2.20;1.00;;;;;;;6.37;100.00;96216.69;4996583;28;20501;-68
2022/04/08 12:26:38;;;;;;;1.67;0.90;;;;;;;6.38;100.00;96224.38;4996417;28;20207;-67
2022/04/08 12:29:16;;;;;;;1.27;1.10;;;;;;;6.45;100.00;96182.00;4996101;28;20663;-67
2022/04/08 12:31:58;;;;;;;1.10;1.00;;;;;;;6.51;100.00;96196.91;4996510;28;20206;-67
2022/04/08 12:34:25;;;;;;;1.90;1.13;;;;;;;6.32;100.00;96206.88;4997040;28;20717;-68
2022/04/08 12:36:51;;;;;;;3.03;1.40;;;;;;;6.31;100.00;96196.56;4995303;28;20223;-67
2022/04/08 12:39:18;;;;;;;1.40;0.80;;;;;;;6.04;100.00;96251.72;4996052;28;20219;-68
2022/04/08 12:41:47;;;;;;;2.67;0.97;;;;;;;6.32;100.00;96198.13;4996317;28;20569;-68
2022/04/08 12:44:14;;;;;;;2.53;1.03;;;;;;;6.28;100.00;96162.72;4995797;28;20722;-67
2022/04/08 12:46:41;;;;;;;1.60;1.10;;;;;;;6.49;100.00;96175.22;4996182;28;20235;-68
2022/04/08 12:49:08;;;;;;;3.93;1.20;;;;;;;6.53;100.00;96157.88;4995947;28;20690;-67
2022/04/08 12:51:35;;;;;;;1.10;1.00;;;;;;;6.41;100.00;96159.78;4996252;28;20207;-67
2022/04/08 12:54:01;;;;;;;1.30;1.20;;;;;;;6.60;100.00;96161.16;4996347;28;20200;-67
2022/04/08 12:56:28;;;;;;;1.07;0.80;;;;;;;6.72;100.00;96152.13;4995998;28;20218;-68
2022/04/08 12:58:55;;;;;;;1.23;1.10;;;;;;;6.80;100.00;96162.28;4996047;28;20203;-67
2022/04/08 13:01:21;;;;;;;1.03;1.00;;;;;;;6.79;100.00;96151.97;4995940;28;20207;-68
2022/04/08 13:03:48;;;;;;;2.23;0.93;;;;;;;6.78;100.00;96160.94;4995556;28;20764;-68